sensor_id;sensor_type;location;lat;lon;timestamp;temperature;humidity
38938;DHT22;24727;51.974;20.868;2022-08-19T00:00:52;20.30;1.00
38938;DHT22;24727;51.974;20.868;2022-08-19T00:03:18;20.30;1.00
38938;DHT22;24727;51.974;20.868;2022-08-19T00:05:44;20.30;1.00
38938;DHT22;24727;51.974;20.868;2022-08-19T00:08:10;20.30;1.00
38938;DHT22;24727;51.974;20.868;2022-08-19T00:10:37;20.30;1.00
38938;DHT22;24727;51.974;20.868;2022-08-19T00:13:02;20.20;1.00
38938;DHT22;24727;51.974;20.868;2022-08-19T00:15:29;20.30;1.00
38938;DHT22;24727;51.974;20.868;2022-08-19T00:17:55;20.30;1.00
38938;DHT22;24727;51.974;20.868;2022-08-19T00:20:21;20.30;1.00
38938;DHT22;24727;51.974;20.868;2022-08-19T00:22:48;20.20;1.00
38938;DHT22;24727;51.974;20.868;2022-08-19T00:25:15;20.20;1.00
38938;DHT22;24727;51.974;20.868;2022-08-19T00:27:43;20.20;1.00
38938;DHT22;24727;51.974;20.868;2022-08-19T00:30:10;20.10;1.00
38938;DHT22;24727;51.974;20.868;2022-08-19T00:32:37;20.10;1.00
38938;DHT22;24727;51.974;20.868;2022-08-19T00:35:03;20.00;1.00
38938;DHT22;24727;51.974;20.868;2022-08-19T00:37:29;19.90;1.00
38938;DHT22;24727;51.974;20.868;2022-08-19T00:40:03;19.80;1.00
38938;DHT22;24727;51.974;20.868;2022-08-19T00:42:30;19.80;1.00
38938;DHT22;24727;51.974;20.868;2022-08-19T00:44:58;19.80;1.00
38938;DHT22;24727;51.974;20.868;2022-08-19T00:47:25;19.80;1.00
38938;DHT22;24727;51.974;20.868;2022-08-19T00:49:54;19.80;1.00
38938;DHT22;24727;51.974;20.868;2022-08-19T00:52:28;19.80;1.00
38938;DHT22;24727;51.974;20.868;2022-08-19T00:54:56;19.70;1.00
38938;DHT22;24727;51.974;20.868;2022-08-19T00:57:28;19.70;1.00
38938;DHT22;24727;51.974;20.868;2022-08-19T00:59:56;19.60;1.00
38938;DHT22;24727;51.974;20.868;2022-08-19T01:02:24;19.50;1.00
38938;DHT22;24727;51.974;20.868;2022-08-19T01:04:50;19.40;1.00
38938;DHT22;24727;51.974;20.868;2022-08-19T01:07:16;19.40;1.00
38938;DHT22;24727;51.974;20.868;2022-08-19T01:09:43;19.40;1.00
38938;DHT22;24727;51.974;20.868;2022-08-19T01:12:09;19.40;1.00
38938;DHT22;24727;51.974;20.868;2022-08-19T01:14:36;19.40;1.00
38938;DHT22;24727;51.974;20.868;2022-08-19T01:17:09;19.50;1.00
38938;DHT22;24727;51.974;20.868;2022-08-19T01:19:40;19.50;1.00
38938;DHT22;24727;51.974;20.868;2022-08-19T01:24:39;19.40;1.00
38938;DHT22;24727;51.974;20.868;2022-08-19T01:27:06;19.40;1.00
38938;DHT22;24727;51.974;20.868;2022-08-19T01:29:34;19.40;1.00
38938;DHT22;24727;51.974;20.868;2022-08-19T01:32:03;19.40;1.00
38938;DHT22;24727;51.974;20.868;2022-08-19T01:34:29;19.30;1.00
38938;DHT22;24727;51.974;20.868;2022-08-19T01:36:54;19.20;1.00
38938;DHT22;24727;51.974;20.868;2022-08-19T01:39:22;19.20;1.00
38938;DHT22;24727;51.974;20.868;2022-08-19T01:41:50;19.20;1.00
38938;DHT22;24727;51.974;20.868;2022-08-19T01:44:18;19.20;1.00
38938;DHT22;24727;51.974;20.868;2022-08-19T01:46:50;19.20;1.00
38938;DHT22;24727;51.974;20.868;2022-08-19T01:49:18;19.20;1.00
38938;DHT22;24727;51.974;20.868;2022-08-19T01:51:45;19.20;1.00
38938;DHT22;24727;51.974;20.868;2022-08-19T01:54:13;19.20;1.00
38938;DHT22;24727;51.974;20.868;2022-08-19T01:56:39;19.10;1.00
38938;DHT22;24727;51.974;20.868;2022-08-19T01:59:13;19.00;1.00
38938;DHT22;24727;51.974;20.868;2022-08-19T02:01:40;19.00;1.00
38938;DHT22;24727;51.974;20.868;2022-08-19T02:04:08;19.00;1.00
38938;DHT22;24727;51.974;20.868;2022-08-19T02:06:37;18.90;1.00
38938;DHT22;24727;51.974;20.868;2022-08-19T02:09:06;18.80;1.00
38938;DHT22;24727;51.974;20.868;2022-08-19T02:11:35;18.80;1.00
38938;DHT22;24727;51.974;20.868;2022-08-19T02:14:04;18.80;1.00
38938;DHT22;24727;51.974;20.868;2022-08-19T02:16:31;18.80;1.00
38938;DHT22;24727;51.974;20.868;2022-08-19T02:18:59;18.80;1.00
38938;DHT22;24727;51.974;20.868;2022-08-19T02:21:29;18.70;1.00
38938;DHT22;24727;51.974;20.868;2022-08-19T02:23:56;18.70;1.00
38938;DHT22;24727;51.974;20.868;2022-08-19T02:26:22;18.60;1.00
38938;DHT22;24727;51.974;20.868;2022-08-19T02:28:49;18.60;1.00
38938;DHT22;24727;51.974;20.868;2022-08-19T02:31:18;18.60;1.00
38938;DHT22;24727;51.974;20.868;2022-08-19T02:33:47;18.60;1.00
38938;DHT22;24727;51.974;20.868;2022-08-19T02:36:16;18.60;1.00
38938;DHT22;24727;51.974;20.868;2022-08-19T02:38:49;18.60;1.00
38938;DHT22;24727;51.974;20.868;2022-08-19T02:41:20;18.60;1.00
38938;DHT22;24727;51.974;20.868;2022-08-19T02:43:47;18.70;1.00
38938;DHT22;24727;51.974;20.868;2022-08-19T02:46:26;18.60;1.00
38938;DHT22;24727;51.974;20.868;2022-08-19T02:48:56;18.60;1.00
38938;DHT22;24727;51.974;20.868;2022-08-19T02:51:32;18.60;1.00
38938;DHT22;24727;51.974;20.868;2022-08-19T02:53:58;18.60;1.00
38938;DHT22;24727;51.974;20.868;2022-08-19T02:56:27;18.60;1.00
38938;DHT22;24727;51.974;20.868;2022-08-19T02:58:55;18.50;1.00
38938;DHT22;24727;51.974;20.868;2022-08-19T03:01:29;18.50;1.00
38938;DHT22;24727;51.974;20.868;2022-08-19T03:04:05;18.40;1.00
38938;DHT22;24727;51.974;20.868;2022-08-19T03:06:34;18.40;1.00
38938;DHT22;24727;51.974;20.868;2022-08-19T03:09:01;18.30;1.00
38938;DHT22;24727;51.974;20.868;2022-08-19T03:11:30;18.40;1.00
38938;DHT22;24727;51.974;20.868;2022-08-19T03:13:57;18.30;1.00
38938;DHT22;24727;51.974;20.868;2022-08-19T03:16:26;18.40;1.00
38938;DHT22;24727;51.974;20.868;2022-08-19T03:18:53;18.30;1.00
38938;DHT22;24727;51.974;20.868;2022-08-19T03:21:24;18.30;1.00
38938;DHT22;24727;51.974;20.868;2022-08-19T03:24:05;18.20;1.00
38938;DHT22;24727;51.974;20.868;2022-08-19T03:26:40;18.10;1.00
38938;DHT22;24727;51.974;20.868;2022-08-19T03:29:09;18.10;1.00
38938;DHT22;24727;51.974;20.868;2022-08-19T03:31:37;18.20;1.00
38938;DHT22;24727;51.974;20.868;2022-08-19T03:34:04;18.20;1.00
38938;DHT22;24727;51.974;20.868;2022-08-19T03:36:30;18.10;1.00
38938;DHT22;24727;51.974;20.868;2022-08-19T03:38:59;18.10;1.00
38938;DHT22;24727;51.974;20.868;2022-08-19T03:41:28;18.00;1.00
38938;DHT22;24727;51.974;20.868;2022-08-19T03:43:55;17.90;1.00
38938;DHT22;24727;51.974;20.868;2022-08-19T03:46:26;17.90;1.00
38938;DHT22;24727;51.974;20.868;2022-08-19T03:48:54;18.00;1.00
38938;DHT22;24727;51.974;20.868;2022-08-19T03:51:30;18.10;1.00
38938;DHT22;24727;51.974;20.868;2022-08-19T03:53:59;18.10;1.00
38938;DHT22;24727;51.974;20.868;2022-08-19T03:56:27;18.20;1.00
38938;DHT22;24727;51.974;20.868;2022-08-19T03:58:57;18.30;1.00
38938;DHT22;24727;51.974;20.868;2022-08-19T04:01:28;18.30;1.00
38938;DHT22;24727;51.974;20.868;2022-08-19T04:03:55;18.20;1.00
38938;DHT22;24727;51.974;20.868;2022-08-19T04:08:50;18.30;1.00
38938;DHT22;24727;51.974;20.868;2022-08-19T04:11:22;18.40;1.00
38938;DHT22;24727;51.974;20.868;2022-08-19T04:13:52;18.50;1.00
38938;DHT22;24727;51.974;20.868;2022-08-19T04:16:20;18.60;1.00
38938;DHT22;24727;51.974;20.868;2022-08-19T04:18:49;18.80;1.00
38938;DHT22;24727;51.974;20.868;2022-08-19T04:21:17;18.90;1.00
38938;DHT22;24727;51.974;20.868;2022-08-19T04:23:44;18.90;1.00
38938;DHT22;24727;51.974;20.868;2022-08-19T04:26:19;19.00;1.00
38938;DHT22;24727;51.974;20.868;2022-08-19T04:28:48;19.10;1.00
38938;DHT22;24727;51.974;20.868;2022-08-19T04:31:23;19.30;1.00
38938;DHT22;24727;51.974;20.868;2022-08-19T04:33:59;19.40;1.00
38938;DHT22;24727;51.974;20.868;2022-08-19T04:36:27;19.50;1.00
38938;DHT22;24727;51.974;20.868;2022-08-19T04:38:57;19.70;1.00
38938;DHT22;24727;51.974;20.868;2022-08-19T04:41:23;19.70;1.00
38938;DHT22;24727;51.974;20.868;2022-08-19T04:44:10;19.80;1.00
38938;DHT22;24727;51.974;20.868;2022-08-19T04:46:37;19.80;1.00
38938;DHT22;24727;51.974;20.868;2022-08-19T04:49:06;19.70;1.00
38938;DHT22;24727;51.974;20.868;2022-08-19T04:51:34;19.80;1.00
38938;DHT22;24727;51.974;20.868;2022-08-19T04:54:01;19.70;1.00
38938;DHT22;24727;51.974;20.868;2022-08-19T04:56:28;19.60;1.20
38938;DHT22;24727;51.974;20.868;2022-08-19T04:58:57;19.50;5.80
38938;DHT22;24727;51.974;20.868;2022-08-19T05:01:29;19.50;8.70
38938;DHT22;24727;51.974;20.868;2022-08-19T05:03:57;19.50;6.80
38938;DHT22;24727;51.974;20.868;2022-08-19T05:06:25;19.50;3.90
38938;DHT22;24727;51.974;20.868;2022-08-19T05:08:52;19.60;9.10
38938;DHT22;24727;51.974;20.868;2022-08-19T05:11:21;19.70;21.90
38938;DHT22;24727;51.974;20.868;2022-08-19T05:13:48;19.70;39.80
38938;DHT22;24727;51.974;20.868;2022-08-19T05:16:23;19.70;48.30
38938;DHT22;24727;51.974;20.868;2022-08-19T05:18:50;19.80;54.80
38938;DHT22;24727;51.974;20.868;2022-08-19T05:21:34;19.90;56.60
38938;DHT22;24727;51.974;20.868;2022-08-19T05:24:21;20.00;47.60
38938;DHT22;24727;51.974;20.868;2022-08-19T05:26:49;20.10;41.50
38938;DHT22;24727;51.974;20.868;2022-08-19T05:29:18;20.10;1.60
38938;DHT22;24727;51.974;20.868;2022-08-19T05:31:47;20.20;1.00
38938;DHT22;24727;51.974;20.868;2022-08-19T05:34:16;20.20;1.00
38938;DHT22;24727;51.974;20.868;2022-08-19T05:36:44;20.20;1.00
38938;DHT22;24727;51.974;20.868;2022-08-19T05:39:17;20.30;1.00
38938;DHT22;24727;51.974;20.868;2022-08-19T05:41:45;20.30;9.60
38938;DHT22;24727;51.974;20.868;2022-08-19T05:44:14;20.30;19.30
38938;DHT22;24727;51.974;20.868;2022-08-19T05:46:44;20.30;19.70
38938;DHT22;24727;51.974;20.868;2022-08-19T05:49:13;20.40;21.10
38938;DHT22;24727;51.974;20.868;2022-08-19T05:51:41;20.50;26.40
38938;DHT22;24727;51.974;20.868;2022-08-19T05:54:08;20.60;23.80
38938;DHT22;24727;51.974;20.868;2022-08-19T05:56:37;20.70;20.70
38938;DHT22;24727;51.974;20.868;2022-08-19T05:59:07;20.80;21.90
38938;DHT22;24727;51.974;20.868;2022-08-19T06:01:44;20.80;20.30
38938;DHT22;24727;51.974;20.868;2022-08-19T06:04:12;20.80;17.20
38938;DHT22;24727;51.974;20.868;2022-08-19T06:06:39;20.90;15.00
38938;DHT22;24727;51.974;20.868;2022-08-19T06:09:07;20.90;15.90
38938;DHT22;24727;51.974;20.868;2022-08-19T06:11:52;21.00;17.60
38938;DHT22;24727;51.974;20.868;2022-08-19T06:14:31;21.00;13.00
38938;DHT22;24727;51.974;20.868;2022-08-19T06:16:57;21.10;16.80
38938;DHT22;24727;51.974;20.868;2022-08-19T06:19:30;21.30;8.40
38938;DHT22;24727;51.974;20.868;2022-08-19T06:21:57;21.40;1.50
38938;DHT22;24727;51.974;20.868;2022-08-19T06:24:25;21.50;1.00
38938;DHT22;24727;51.974;20.868;2022-08-19T06:26:54;21.70;1.00
38938;DHT22;24727;51.974;20.868;2022-08-19T06:29:23;21.80;1.00
38938;DHT22;24727;51.974;20.868;2022-08-19T06:31:53;22.10;1.00
38938;DHT22;24727;51.974;20.868;2022-08-19T06:34:19;22.40;1.00
38938;DHT22;24727;51.974;20.868;2022-08-19T06:36:49;22.70;1.00
38938;DHT22;24727;51.974;20.868;2022-08-19T06:39:19;23.10;1.00
38938;DHT22;24727;51.974;20.868;2022-08-19T06:41:48;23.40;1.00
38938;DHT22;24727;51.974;20.868;2022-08-19T06:44:15;23.80;1.00
38938;DHT22;24727;51.974;20.868;2022-08-19T06:46:41;24.10;1.00
38938;DHT22;24727;51.974;20.868;2022-08-19T06:49:08;24.30;1.00
38938;DHT22;24727;51.974;20.868;2022-08-19T06:51:41;24.50;1.00
38938;DHT22;24727;51.974;20.868;2022-08-19T06:54:08;24.70;1.00
38938;DHT22;24727;51.974;20.868;2022-08-19T06:56:34;25.00;1.00
38938;DHT22;24727;51.974;20.868;2022-08-19T06:59:13;25.20;1.00
38938;DHT22;24727;51.974;20.868;2022-08-19T07:01:42;25.30;1.00
38938;DHT22;24727;51.974;20.868;2022-08-19T07:04:13;25.60;1.00
38938;DHT22;24727;51.974;20.868;2022-08-19T07:06:40;25.70;1.00
38938;DHT22;24727;51.974;20.868;2022-08-19T07:09:08;25.80;1.00
38938;DHT22;24727;51.974;20.868;2022-08-19T07:11:34;25.90;1.00
38938;DHT22;24727;51.974;20.868;2022-08-19T07:14:03;26.10;1.00
38938;DHT22;24727;51.974;20.868;2022-08-19T07:16:32;26.20;1.00
38938;DHT22;24727;51.974;20.868;2022-08-19T07:18:58;26.50;1.00
38938;DHT22;24727;51.974;20.868;2022-08-19T07:21:27;26.60;1.00
38938;DHT22;24727;51.974;20.868;2022-08-19T07:23:55;26.80;1.00
38938;DHT22;24727;51.974;20.868;2022-08-19T07:26:24;26.90;1.00
38938;DHT22;24727;51.974;20.868;2022-08-19T07:28:53;26.90;1.00
38938;DHT22;24727;51.974;20.868;2022-08-19T07:31:21;27.10;1.00
38938;DHT22;24727;51.974;20.868;2022-08-19T07:33:50;27.40;1.00
38938;DHT22;24727;51.974;20.868;2022-08-19T07:36:19;27.60;1.00
38938;DHT22;24727;51.974;20.868;2022-08-19T07:38:47;27.70;1.00
38938;DHT22;24727;51.974;20.868;2022-08-19T07:41:18;27.70;1.00
38938;DHT22;24727;51.974;20.868;2022-08-19T07:43:45;27.70;1.00
38938;DHT22;24727;51.974;20.868;2022-08-19T07:46:14;27.90;1.00
38938;DHT22;24727;51.974;20.868;2022-08-19T07:48:44;28.00;1.00
38938;DHT22;24727;51.974;20.868;2022-08-19T07:51:20;28.00;1.00
38938;DHT22;24727;51.974;20.868;2022-08-19T07:53:47;28.10;1.00
38938;DHT22;24727;51.974;20.868;2022-08-19T07:56:17;28.10;1.00
38938;DHT22;24727;51.974;20.868;2022-08-19T07:58:45;28.20;1.00
38938;DHT22;24727;51.974;20.868;2022-08-19T08:01:16;28.30;1.00
38938;DHT22;24727;51.974;20.868;2022-08-19T08:03:43;28.40;1.00
38938;DHT22;24727;51.974;20.868;2022-08-19T08:06:28;28.70;1.00
38938;DHT22;24727;51.974;20.868;2022-08-19T08:09:15;28.80;1.00
38938;DHT22;24727;51.974;20.868;2022-08-19T08:11:52;28.60;1.00
38938;DHT22;24727;51.974;20.868;2022-08-19T08:14:23;28.50;1.00
38938;DHT22;24727;51.974;20.868;2022-08-19T08:16:56;28.60;1.00
38938;DHT22;24727;51.974;20.868;2022-08-19T08:19:24;28.60;1.00
38938;DHT22;24727;51.974;20.868;2022-08-19T08:21:52;28.60;1.00
38938;DHT22;24727;51.974;20.868;2022-08-19T08:24:19;28.60;1.00
38938;DHT22;24727;51.974;20.868;2022-08-19T08:26:46;28.80;1.00
38938;DHT22;24727;51.974;20.868;2022-08-19T08:29:13;29.30;1.00
38938;DHT22;24727;51.974;20.868;2022-08-19T08:31:44;29.60;1.00
38938;DHT22;24727;51.974;20.868;2022-08-19T08:34:13;29.80;1.00
38938;DHT22;24727;51.974;20.868;2022-08-19T08:36:44;29.70;1.00
38938;DHT22;24727;51.974;20.868;2022-08-19T08:39:12;29.50;1.00
38938;DHT22;24727;51.974;20.868;2022-08-19T08:41:46;29.70;1.00
38938;DHT22;24727;51.974;20.868;2022-08-19T08:44:21;30.30;1.00
38938;DHT22;24727;51.974;20.868;2022-08-19T08:47:15;30.20;1.00
38938;DHT22;24727;51.974;20.868;2022-08-19T08:50:23;30.40;1.00
38938;DHT22;24727;51.974;20.868;2022-08-19T08:52:50;30.90;1.00
38938;DHT22;24727;51.974;20.868;2022-08-19T08:55:21;30.90;1.00
38938;DHT22;24727;51.974;20.868;2022-08-19T09:00:26;30.50;1.00
38938;DHT22;24727;51.974;20.868;2022-08-19T09:02:57;30.30;1.00
38938;DHT22;24727;51.974;20.868;2022-08-19T09:05:27;30.10;1.00
38938;DHT22;24727;51.974;20.868;2022-08-19T09:08:07;30.50;1.00
38938;DHT22;24727;51.974;20.868;2022-08-19T09:10:38;30.40;1.00
38938;DHT22;24727;51.974;20.868;2022-08-19T09:15:39;30.70;1.00
38938;DHT22;24727;51.974;20.868;2022-08-19T09:18:06;30.70;1.00
38938;DHT22;24727;51.974;20.868;2022-08-19T09:20:34;31.00;1.00
38938;DHT22;24727;51.974;20.868;2022-08-19T09:23:00;31.20;1.00
38938;DHT22;24727;51.974;20.868;2022-08-19T09:25:26;31.50;1.00
38938;DHT22;24727;51.974;20.868;2022-08-19T09:27:53;31.90;1.00
38938;DHT22;24727;51.974;20.868;2022-08-19T09:30:23;31.80;1.00
38938;DHT22;24727;51.974;20.868;2022-08-19T09:32:51;31.80;1.00
38938;DHT22;24727;51.974;20.868;2022-08-19T09:35:22;31.40;1.00
38938;DHT22;24727;51.974;20.868;2022-08-19T09:37:50;31.30;1.00
38938;DHT22;24727;51.974;20.868;2022-08-19T09:40:18;31.50;1.00
38938;DHT22;24727;51.974;20.868;2022-08-19T09:42:46;31.70;1.00
38938;DHT22;24727;51.974;20.868;2022-08-19T09:45:19;31.80;1.00
38938;DHT22;24727;51.974;20.868;2022-08-19T09:47:48;31.60;1.00
38938;DHT22;24727;51.974;20.868;2022-08-19T09:50:17;31.70;1.00
38938;DHT22;24727;51.974;20.868;2022-08-19T09:52:44;31.70;1.00
38938;DHT22;24727;51.974;20.868;2022-08-19T09:55:14;31.60;1.00
38938;DHT22;24727;51.974;20.868;2022-08-19T09:57:42;31.60;1.00
38938;DHT22;24727;51.974;20.868;2022-08-19T10:00:09;31.60;1.00
38938;DHT22;24727;51.974;20.868;2022-08-19T10:02:36;31.40;1.00
38938;DHT22;24727;51.974;20.868;2022-08-19T10:05:03;31.50;1.00
38938;DHT22;24727;51.974;20.868;2022-08-19T10:07:47;31.50;1.00
38938;DHT22;24727;51.974;20.868;2022-08-19T10:10:13;31.30;1.00
38938;DHT22;24727;51.974;20.868;2022-08-19T10:12:39;31.50;1.00
38938;DHT22;24727;51.974;20.868;2022-08-19T10:15:06;31.40;1.00
38938;DHT22;24727;51.974;20.868;2022-08-19T10:17:32;31.70;1.00
38938;DHT22;24727;51.974;20.868;2022-08-19T10:20:02;32.20;1.00
38938;DHT22;24727;51.974;20.868;2022-08-19T10:22:30;32.70;1.00
38938;DHT22;24727;51.974;20.868;2022-08-19T10:24:56;32.30;1.00
38938;DHT22;24727;51.974;20.868;2022-08-19T10:27:23;32.30;1.00
38938;DHT22;24727;51.974;20.868;2022-08-19T10:29:49;32.10;1.00
38938;DHT22;24727;51.974;20.868;2022-08-19T10:32:18;32.40;1.00
38938;DHT22;24727;51.974;20.868;2022-08-19T10:34:44;32.30;1.00
38938;DHT22;24727;51.974;20.868;2022-08-19T10:37:10;32.30;1.00
38938;DHT22;24727;51.974;20.868;2022-08-19T10:39:36;32.80;1.00
38938;DHT22;24727;51.974;20.868;2022-08-19T10:42:06;33.30;1.00
38938;DHT22;24727;51.974;20.868;2022-08-19T10:44:35;33.10;1.00
38938;DHT22;24727;51.974;20.868;2022-08-19T10:47:01;33.00;1.00
38938;DHT22;24727;51.974;20.868;2022-08-19T10:49:28;33.50;1.00
38938;DHT22;24727;51.974;20.868;2022-08-19T10:51:56;33.80;1.00
38938;DHT22;24727;51.974;20.868;2022-08-19T10:54:41;33.20;1.00
38938;DHT22;24727;51.974;20.868;2022-08-19T10:57:30;32.80;1.00
38938;DHT22;24727;51.974;20.868;2022-08-19T10:59:56;33.40;1.00
38938;DHT22;24727;51.974;20.868;2022-08-19T11:02:23;33.60;1.00
38938;DHT22;24727;51.974;20.868;2022-08-19T11:04:49;32.90;1.00
38938;DHT22;24727;51.974;20.868;2022-08-19T11:07:17;33.10;1.00
38938;DHT22;24727;51.974;20.868;2022-08-19T11:09:43;32.90;1.00
38938;DHT22;24727;51.974;20.868;2022-08-19T11:12:10;32.20;1.00
38938;DHT22;24727;51.974;20.868;2022-08-19T11:14:36;32.40;1.00
38938;DHT22;24727;51.974;20.868;2022-08-19T11:17:03;32.60;1.00
38938;DHT22;24727;51.974;20.868;2022-08-19T11:19:31;32.90;1.00
38938;DHT22;24727;51.974;20.868;2022-08-19T11:21:58;33.20;1.00
38938;DHT22;24727;51.974;20.868;2022-08-19T11:24:35;33.40;1.00
38938;DHT22;24727;51.974;20.868;2022-08-19T11:27:06;33.20;1.00
38938;DHT22;24727;51.974;20.868;2022-08-19T11:29:33;32.70;1.00
38938;DHT22;24727;51.974;20.868;2022-08-19T11:32:04;33.30;1.00
38938;DHT22;24727;51.974;20.868;2022-08-19T11:34:30;33.90;1.00
38938;DHT22;24727;51.974;20.868;2022-08-19T11:36:57;34.00;1.00
38938;DHT22;24727;51.974;20.868;2022-08-19T11:39:26;33.90;1.00
38938;DHT22;24727;51.974;20.868;2022-08-19T11:41:52;34.60;1.00
38938;DHT22;24727;51.974;20.868;2022-08-19T11:44:19;34.50;1.00
38938;DHT22;24727;51.974;20.868;2022-08-19T11:46:46;34.50;1.00
38938;DHT22;24727;51.974;20.868;2022-08-19T11:49:14;33.20;1.00
38938;DHT22;24727;51.974;20.868;2022-08-19T11:51:41;32.90;1.00
38938;DHT22;24727;51.974;20.868;2022-08-19T11:54:10;32.70;1.00
38938;DHT22;24727;51.974;20.868;2022-08-19T11:56:37;32.50;1.00
38938;DHT22;24727;51.974;20.868;2022-08-19T11:59:05;32.80;1.00
38938;DHT22;24727;51.974;20.868;2022-08-19T12:01:31;32.80;1.00
38938;DHT22;24727;51.974;20.868;2022-08-19T12:03:58;33.80;1.00
38938;DHT22;24727;51.974;20.868;2022-08-19T12:06:28;33.50;1.00
38938;DHT22;24727;51.974;20.868;2022-08-19T12:08:57;33.50;1.00
38938;DHT22;24727;51.974;20.868;2022-08-19T12:11:23;33.90;1.00
38938;DHT22;24727;51.974;20.868;2022-08-19T12:13:52;34.20;1.00
38938;DHT22;24727;51.974;20.868;2022-08-19T12:16:23;33.30;1.00
38938;DHT22;24727;51.974;20.868;2022-08-19T12:18:51;33.10;1.00
38938;DHT22;24727;51.974;20.868;2022-08-19T12:21:20;33.60;1.00
38938;DHT22;24727;51.974;20.868;2022-08-19T12:23:49;33.00;1.00
38938;DHT22;24727;51.974;20.868;2022-08-19T12:26:16;32.90;1.00
38938;DHT22;24727;51.974;20.868;2022-08-19T12:28:44;33.10;1.00
38938;DHT22;24727;51.974;20.868;2022-08-19T12:31:11;33.20;1.00
38938;DHT22;24727;51.974;20.868;2022-08-19T12:33:38;33.00;1.00
38938;DHT22;24727;51.974;20.868;2022-08-19T12:36:07;32.90;1.00
38938;DHT22;24727;51.974;20.868;2022-08-19T12:38:34;32.70;1.00
38938;DHT22;24727;51.974;20.868;2022-08-19T12:41:04;32.50;1.00
38938;DHT22;24727;51.974;20.868;2022-08-19T12:43:33;32.50;1.00
38938;DHT22;24727;51.974;20.868;2022-08-19T12:46:05;32.90;1.00
38938;DHT22;24727;51.974;20.868;2022-08-19T12:48:33;33.00;1.00
38938;DHT22;24727;51.974;20.868;2022-08-19T12:51:06;33.00;1.00
38938;DHT22;24727;51.974;20.868;2022-08-19T12:53:33;33.30;1.00
38938;DHT22;24727;51.974;20.868;2022-08-19T12:56:01;33.00;1.00
38938;DHT22;24727;51.974;20.868;2022-08-19T12:58:27;32.70;1.00
38938;DHT22;24727;51.974;20.868;2022-08-19T13:01:21;33.40;1.00
38938;DHT22;24727;51.974;20.868;2022-08-19T13:03:47;33.30;1.00
38938;DHT22;24727;51.974;20.868;2022-08-19T13:06:14;33.40;1.00
38938;DHT22;24727;51.974;20.868;2022-08-19T13:08:41;33.50;1.00
38938;DHT22;24727;51.974;20.868;2022-08-19T13:11:11;33.50;1.00
38938;DHT22;24727;51.974;20.868;2022-08-19T13:13:40;33.70;1.00
38938;DHT22;24727;51.974;20.868;2022-08-19T13:16:09;33.50;1.00
38938;DHT22;24727;51.974;20.868;2022-08-19T13:18:38;33.90;1.00
38938;DHT22;24727;51.974;20.868;2022-08-19T13:21:07;33.00;1.00
38938;DHT22;24727;51.974;20.868;2022-08-19T13:23:35;33.20;1.00
38938;DHT22;24727;51.974;20.868;2022-08-19T13:26:06;32.30;1.00
38938;DHT22;24727;51.974;20.868;2022-08-19T13:28:33;32.50;1.00
38938;DHT22;24727;51.974;20.868;2022-08-19T13:31:21;32.30;1.00
38938;DHT22;24727;51.974;20.868;2022-08-19T13:34:30;32.40;1.00
38938;DHT22;24727;51.974;20.868;2022-08-19T13:37:05;32.40;1.00
38938;DHT22;24727;51.974;20.868;2022-08-19T13:39:32;31.80;1.00
38938;DHT22;24727;51.974;20.868;2022-08-19T13:41:59;32.20;1.00
38938;DHT22;24727;51.974;20.868;2022-08-19T13:44:28;32.50;1.00
38938;DHT22;24727;51.974;20.868;2022-08-19T13:47:02;32.70;1.00
38938;DHT22;24727;51.974;20.868;2022-08-19T13:49:34;32.70;1.00
38938;DHT22;24727;51.974;20.868;2022-08-19T13:52:04;32.90;1.00
38938;DHT22;24727;51.974;20.868;2022-08-19T13:54:31;33.10;1.00
38938;DHT22;24727;51.974;20.868;2022-08-19T13:56:57;33.30;1.00
38938;DHT22;24727;51.974;20.868;2022-08-19T13:59:23;33.30;1.00
38938;DHT22;24727;51.974;20.868;2022-08-19T14:01:51;33.20;1.00
38938;DHT22;24727;51.974;20.868;2022-08-19T14:04:17;32.50;1.00
38938;DHT22;24727;51.974;20.868;2022-08-19T14:06:43;32.60;1.00
38938;DHT22;24727;51.974;20.868;2022-08-19T14:09:09;32.50;1.00
38938;DHT22;24727;51.974;20.868;2022-08-19T14:11:37;32.20;1.00
38938;DHT22;24727;51.974;20.868;2022-08-19T14:14:03;32.00;1.00
38938;DHT22;24727;51.974;20.868;2022-08-19T14:16:31;32.00;1.00
38938;DHT22;24727;51.974;20.868;2022-08-19T14:18:58;32.50;1.00
38938;DHT22;24727;51.974;20.868;2022-08-19T14:21:25;32.30;1.00
38938;DHT22;24727;51.974;20.868;2022-08-19T14:23:52;32.20;1.00
38938;DHT22;24727;51.974;20.868;2022-08-19T14:26:20;32.20;1.00
38938;DHT22;24727;51.974;20.868;2022-08-19T14:28:48;32.00;1.00
38938;DHT22;24727;51.974;20.868;2022-08-19T14:31:17;31.90;1.00
38938;DHT22;24727;51.974;20.868;2022-08-19T14:33:46;32.10;1.00
38938;DHT22;24727;51.974;20.868;2022-08-19T14:36:14;32.20;1.00
38938;DHT22;24727;51.974;20.868;2022-08-19T14:38:40;32.20;1.00
38938;DHT22;24727;51.974;20.868;2022-08-19T14:41:18;32.00;1.00
38938;DHT22;24727;51.974;20.868;2022-08-19T14:43:49;31.80;1.00
38938;DHT22;24727;51.974;20.868;2022-08-19T14:46:24;31.80;1.00
38938;DHT22;24727;51.974;20.868;2022-08-19T14:48:52;31.70;1.00
38938;DHT22;24727;51.974;20.868;2022-08-19T14:51:19;31.80;1.00
38938;DHT22;24727;51.974;20.868;2022-08-19T14:53:45;31.90;1.00
38938;DHT22;24727;51.974;20.868;2022-08-19T14:56:18;31.90;1.00
38938;DHT22;24727;51.974;20.868;2022-08-19T14:58:44;32.00;1.00
38938;DHT22;24727;51.974;20.868;2022-08-19T15:01:11;31.80;1.00
38938;DHT22;24727;51.974;20.868;2022-08-19T15:03:39;31.80;1.00
38938;DHT22;24727;51.974;20.868;2022-08-19T15:06:06;31.80;1.00
38938;DHT22;24727;51.974;20.868;2022-08-19T15:08:36;31.40;1.00
38938;DHT22;24727;51.974;20.868;2022-08-19T15:11:10;31.30;1.00
38938;DHT22;24727;51.974;20.868;2022-08-19T15:13:36;31.00;1.00
38938;DHT22;24727;51.974;20.868;2022-08-19T15:16:03;31.20;1.00
38938;DHT22;24727;51.974;20.868;2022-08-19T15:18:29;31.10;1.00
38938;DHT22;24727;51.974;20.868;2022-08-19T15:20:55;31.20;1.00
38938;DHT22;24727;51.974;20.868;2022-08-19T15:23:22;31.40;1.00
38938;DHT22;24727;51.974;20.868;2022-08-19T15:25:51;31.30;1.00
38938;DHT22;24727;51.974;20.868;2022-08-19T15:28:25;31.10;1.00
38938;DHT22;24727;51.974;20.868;2022-08-19T15:30:52;31.10;1.00
38938;DHT22;24727;51.974;20.868;2022-08-19T15:33:19;31.00;1.00
38938;DHT22;24727;51.974;20.868;2022-08-19T15:35:47;31.00;1.00
38938;DHT22;24727;51.974;20.868;2022-08-19T15:38:16;30.90;1.00
38938;DHT22;24727;51.974;20.868;2022-08-19T15:40:42;30.90;1.00
38938;DHT22;24727;51.974;20.868;2022-08-19T15:43:10;31.10;1.00
38938;DHT22;24727;51.974;20.868;2022-08-19T15:45:36;30.90;1.00
38938;DHT22;24727;51.974;20.868;2022-08-19T15:48:04;30.70;1.00
38938;DHT22;24727;51.974;20.868;2022-08-19T15:50:30;30.90;1.00
38938;DHT22;24727;51.974;20.868;2022-08-19T15:53:00;31.00;1.00